createdAt,value
2018-05-03T00:00:04.031Z,10.40
2018-05-03T00:01:04.120Z,10.60
2018-05-03T00:02:04.086Z,10.60
2018-05-03T00:03:03.905Z,11.10
2018-05-03T00:04:03.931Z,11.60
2018-05-03T00:05:03.886Z,11.80
2018-05-03T00:06:03.814Z,11.60
2018-05-03T00:07:03.787Z,12.50
2018-05-03T00:08:03.886Z,11.70
2018-05-03T00:09:03.684Z,12.30
2018-05-03T00:10:03.664Z,11.00
2018-05-03T00:11:03.646Z,11.60
2018-05-03T00:12:03.581Z,9.80
2018-05-03T00:13:03.619Z,10.90
2018-05-03T00:14:03.504Z,11.20
2018-05-03T00:15:03.508Z,11.90
2018-05-03T00:16:03.393Z,11.20
2018-05-03T00:17:03.435Z,11.00
2018-05-03T00:18:03.328Z,10.80
2018-05-03T00:19:03.340Z,10.40
2018-05-03T00:20:03.253Z,10.20
2018-05-03T00:21:03.250Z,10.40
2018-05-03T00:22:03.188Z,10.90
2018-05-03T00:23:03.145Z,11.00
2018-05-03T00:24:03.157Z,11.00
2018-05-03T00:25:03.072Z,11.90
2018-05-03T00:26:02.985Z,10.80
2018-05-03T00:27:02.985Z,10.60
2018-05-03T00:28:03.025Z,11.10
2018-05-03T00:29:02.906Z,10.10
2018-05-03T00:30:02.954Z,11.30
2018-05-03T00:31:02.875Z,10.40
2018-05-03T00:32:02.855Z,10.70
2018-05-03T00:33:02.835Z,10.60
2018-05-03T00:34:02.719Z,10.60
2018-05-03T00:35:02.669Z,10.10
2018-05-03T00:36:02.677Z,10.00
2018-05-03T00:37:02.591Z,10.00
2018-05-03T00:38:02.554Z,9.70
2018-05-03T00:39:02.516Z,9.30
2018-05-03T00:40:02.474Z,9.30
2018-05-03T00:41:02.408Z,10.10
2018-05-03T00:42:02.428Z,9.80
2018-05-03T00:43:02.372Z,9.80
2018-05-03T00:44:02.319Z,9.00
2018-05-03T00:45:02.289Z,9.60
2018-05-03T00:46:02.241Z,10.10
2018-05-03T00:47:02.188Z,10.20
2018-05-03T00:48:02.179Z,9.90
2018-05-03T00:49:02.189Z,10.20
2018-05-03T00:50:02.108Z,10.80
2018-05-03T00:51:02.025Z,10.30
2018-05-03T00:52:01.983Z,11.10
2018-05-03T00:53:01.960Z,11.50
2018-05-03T00:54:01.910Z,11.60
2018-05-03T00:55:01.855Z,11.80
2018-05-03T00:56:01.874Z,12.00
2018-05-03T00:57:01.918Z,12.50
2018-05-03T00:58:01.764Z,13.20
2018-05-03T00:59:01.801Z,12.40
2018-05-03T01:00:01.713Z,11.90
2018-05-03T01:01:01.663Z,12.30
2018-05-03T01:03:37.061Z,11.70
2018-05-03T01:04:35.859Z,11.30
2018-05-03T01:06:30.570Z,10.80
2018-05-03T01:07:29.326Z,11.00
2018-05-03T01:09:24.339Z,10.30
2018-05-03T01:10:24.382Z,9.90
2018-05-03T01:13:50.391Z,10.60
2018-05-03T01:14:48.421Z,10.00
2018-05-03T01:16:48.115Z,9.50
2018-05-03T01:17:45.928Z,8.30
2018-05-03T01:19:41.273Z,9.20
2018-05-03T01:20:41.295Z,9.80
2018-05-03T01:22:55.692Z,9.50
2018-05-03T01:23:34.345Z,9.50
2018-05-03T01:25:28.839Z,9.40
2018-05-03T01:26:27.507Z,9.50
2018-05-03T01:28:22.322Z,9.90
2018-05-03T01:29:20.966Z,11.60
2018-05-03T01:31:27.790Z,11.30
2018-05-03T01:32:27.699Z,11.10
2018-05-03T01:34:20.595Z,11.20
2018-05-03T01:35:20.632Z,12.00
2018-05-03T01:37:13.675Z,11.60
2018-05-03T01:38:13.215Z,10.70
2018-05-03T01:40:06.686Z,11.20
2018-05-03T01:41:07.115Z,11.10
2018-05-03T01:43:00.074Z,11.50
2018-05-03T01:43:59.991Z,12.30
2018-05-03T01:45:52.904Z,12.40
2018-05-03T01:46:51.683Z,11.00
2018-05-03T01:48:46.502Z,11.60
2018-05-03T01:49:46.063Z,12.20
2018-05-03T01:51:39.387Z,12.10
2018-05-03T01:52:39.278Z,12.00
2018-05-03T01:54:32.235Z,12.10
2018-05-03T01:55:32.449Z,11.70
2018-05-03T01:57:25.365Z,12.30
2018-05-03T01:58:25.288Z,12.00
2018-05-03T02:00:18.306Z,13.40
2018-05-03T02:01:16.487Z,13.20
2018-05-03T02:03:11.337Z,12.90
2018-05-03T02:04:10.819Z,13.60
2018-05-03T02:06:04.200Z,13.10
2018-05-03T02:07:03.731Z,12.90
2018-05-03T02:08:57.138Z,13.80
2018-05-03T02:09:57.083Z,14.30
2018-05-03T02:11:50.127Z,14.70
2018-05-03T02:12:48.256Z,13.50
2018-05-03T02:14:43.099Z,14.20
2018-05-03T02:15:42.873Z,13.90
2018-05-03T02:17:36.813Z,15.80
2018-05-03T02:18:35.309Z,16.00
2018-05-03T02:20:30.531Z,16.00
2018-05-03T02:21:30.434Z,16.70
2018-05-03T02:23:23.432Z,15.60
2018-05-03T02:24:23.368Z,14.50
2018-05-03T02:26:16.778Z,14.60
2018-05-03T02:27:16.220Z,15.40
2018-05-03T02:29:09.382Z,15.80
2018-05-03T02:30:07.478Z,15.80
2018-05-03T02:32:02.741Z,16.80
2018-05-03T02:33:01.592Z,17.90
2018-05-03T02:34:55.864Z,17.30
2018-05-03T02:35:54.870Z,17.00
2018-05-03T02:37:49.109Z,19.10
2018-05-03T02:38:47.754Z,18.00
2018-05-03T02:39:48.734Z,17.50
2018-05-03T02:40:48.861Z,16.70
2018-05-03T02:41:48.644Z,17.80
2018-05-03T02:42:48.554Z,16.30
2018-05-03T02:43:48.726Z,15.60
2018-05-03T02:44:48.548Z,17.00
2018-05-03T02:45:48.531Z,16.00
2018-05-03T02:46:46.490Z,15.20
2018-05-03T02:47:46.145Z,17.50
2018-05-03T02:48:46.194Z,18.70
2018-05-03T02:49:46.160Z,18.50
2018-05-03T02:50:46.071Z,17.40
2018-05-03T02:51:46.019Z,17.50
2018-05-03T02:52:45.946Z,18.10
2018-05-03T02:53:45.913Z,18.30
2018-05-03T02:54:45.874Z,17.60
2018-05-03T02:55:45.841Z,14.60
2018-05-03T02:56:45.829Z,16.00
2018-05-03T02:57:45.801Z,15.20
2018-05-03T02:58:45.741Z,15.30
2018-05-03T02:59:45.717Z,16.00
2018-05-03T03:00:45.670Z,16.60
2018-05-03T03:01:45.738Z,16.20
2018-05-03T03:02:45.568Z,15.20
2018-05-03T03:03:45.598Z,15.70
2018-05-03T03:04:45.522Z,16.40
2018-05-03T03:05:45.502Z,16.30
2018-05-03T03:06:45.426Z,16.80
2018-05-03T03:07:45.428Z,18.00
2018-05-03T03:08:45.333Z,18.10
2018-05-03T03:09:45.379Z,18.70
2018-05-03T03:10:45.246Z,18.10
2018-05-03T03:11:45.243Z,18.60
2018-05-03T03:12:45.246Z,17.00
2018-05-03T03:13:45.173Z,16.20
2018-05-03T03:14:45.097Z,16.50
2018-05-03T03:15:45.057Z,16.30
2018-05-03T03:16:45.024Z,16.10
2018-05-03T03:17:44.996Z,17.20
2018-05-03T03:18:44.951Z,15.40
2018-05-03T03:19:44.956Z,15.80
2018-05-03T03:20:44.864Z,16.10
2018-05-03T03:21:44.816Z,16.30
2018-05-03T03:22:44.791Z,18.00
2018-05-03T03:23:44.809Z,19.30
2018-05-03T03:24:44.712Z,19.20
2018-05-03T03:25:44.677Z,18.60
2018-05-03T03:26:44.631Z,18.60
2018-05-03T03:27:44.603Z,18.90
2018-05-03T03:28:44.565Z,17.60
2018-05-03T03:29:44.530Z,18.00
2018-05-03T03:30:44.467Z,19.40
2018-05-03T03:31:44.442Z,20.90
2018-05-03T03:32:44.439Z,21.60
2018-05-03T03:33:44.353Z,22.60
2018-05-03T03:34:44.306Z,22.60
2018-05-03T03:35:44.260Z,20.50
2018-05-03T03:36:44.240Z,19.40
2018-05-03T03:37:44.193Z,20.20
2018-05-03T03:38:44.208Z,20.20
2018-05-03T03:39:44.149Z,20.50
2018-05-03T03:40:44.100Z,20.80
2018-05-03T03:41:44.019Z,19.40
2018-05-03T03:42:44.016Z,20.20
2018-05-03T03:43:43.964Z,19.00
2018-05-03T03:44:43.947Z,20.00
2018-05-03T03:45:45.472Z,19.70
2018-05-03T03:47:40.981Z,19.60
2018-05-03T03:48:39.280Z,19.60
2018-05-03T03:50:33.627Z,19.00
2018-05-03T03:51:33.538Z,19.50
2018-05-03T03:53:26.540Z,20.20
2018-05-03T03:54:26.601Z,19.50
2018-05-03T03:56:19.407Z,20.20
2018-05-03T03:57:19.419Z,21.70
2018-05-03T03:59:12.567Z,22.40
2018-05-03T04:00:11.170Z,21.90
2018-05-03T04:02:05.355Z,20.80
2018-05-03T04:03:05.331Z,20.40
2018-05-03T04:05:00.210Z,20.70
2018-05-03T04:05:59.810Z,20.10
2018-05-03T04:06:59.812Z,21.30
2018-05-03T04:07:59.729Z,24.20
2018-05-03T04:08:58.190Z,23.00
2018-05-03T04:09:59.751Z,21.30
2018-05-03T04:10:59.753Z,21.20
2018-05-03T04:11:59.636Z,21.50
2018-05-03T04:12:59.638Z,23.50
2018-05-03T04:14:00.621Z,24.20
2018-05-03T04:15:00.802Z,24.10
2018-05-03T04:16:53.899Z,24.50
2018-05-03T04:17:53.901Z,23.40
2018-05-03T04:19:46.882Z,24.20
2018-05-03T04:20:46.947Z,26.20
2018-05-03T04:22:39.916Z,27.30
2018-05-03T04:23:38.051Z,26.40
2018-05-03T04:25:32.787Z,27.60
2018-05-03T04:26:32.156Z,25.80
2018-05-03T04:28:25.904Z,25.70
2018-05-03T04:29:23.976Z,26.20
2018-05-03T04:31:18.747Z,26.00
2018-05-03T04:32:18.765Z,25.00
2018-05-03T04:34:16.592Z,26.10
2018-05-03T04:35:15.874Z,25.80
2018-05-03T04:37:09.709Z,25.40
2018-05-03T04:38:09.367Z,24.30
2018-05-03T04:40:02.758Z,24.80
2018-05-03T04:41:00.561Z,24.50
2018-05-03T04:42:55.261Z,24.20
2018-05-03T04:43:55.200Z,25.20
2018-05-03T04:45:48.806Z,26.10
2018-05-03T04:46:48.761Z,25.30
2018-05-03T04:48:41.752Z,26.00
2018-05-03T04:49:41.595Z,28.00
2018-05-03T04:51:34.625Z,24.20
2018-05-03T04:52:34.620Z,25.10
2018-05-03T04:54:27.670Z,25.10
2018-05-03T04:55:27.639Z,25.10
2018-05-03T04:57:20.968Z,24.30
2018-05-03T04:58:19.292Z,23.40
2018-05-03T05:00:13.196Z,25.20
2018-05-03T05:01:11.786Z,23.70
2018-05-03T05:03:06.512Z,23.00
2018-05-03T05:04:04.751Z,22.00
2018-05-03T05:05:59.463Z,21.20
2018-05-03T05:06:59.437Z,21.40
2018-05-03T05:08:52.370Z,21.60
2018-05-03T05:09:50.911Z,21.70
2018-05-03T05:11:45.390Z,20.20
2018-05-03T05:12:43.377Z,19.60
2018-05-03T05:14:38.372Z,18.80
2018-05-03T05:15:38.218Z,20.00
2018-05-03T05:17:34.178Z,18.70
2018-05-03T05:20:27.795Z,19.60
2018-05-03T05:21:27.619Z,17.60
2018-05-03T05:23:20.252Z,19.60
2018-05-03T05:24:19.445Z,19.20
2018-05-03T05:26:13.705Z,18.50
2018-05-03T05:27:12.297Z,17.90
2018-05-03T05:29:06.560Z,18.30
2018-05-03T05:30:06.542Z,17.80
2018-05-03T05:32:01.164Z,19.30
2018-05-03T05:32:59.078Z,19.70
2018-05-03T05:34:54.119Z,19.20
2018-05-03T05:35:53.947Z,19.00
2018-05-03T05:37:46.878Z,18.10
2018-05-03T05:38:45.026Z,17.50
2018-05-03T05:40:39.507Z,17.10
2018-05-03T05:41:39.779Z,16.60
2018-05-03T05:43:32.886Z,16.90
2018-05-03T05:44:31.201Z,16.20
2018-05-03T05:46:25.838Z,16.30
2018-05-03T05:47:24.120Z,17.50
2018-05-03T05:49:19.866Z,15.20
2018-05-03T05:50:20.293Z,15.30
2018-05-03T05:52:13.821Z,15.70
2018-05-03T05:53:11.858Z,15.00
2018-05-03T05:55:07.358Z,14.50
2018-05-03T05:56:07.071Z,14.30
2018-05-03T05:58:00.297Z,14.60
2018-05-03T05:58:58.357Z,14.30
2018-05-03T06:00:52.570Z,13.60
2018-05-03T06:01:51.297Z,13.20
2018-05-03T06:03:46.090Z,14.20
2018-05-03T06:04:46.048Z,13.80
2018-05-03T06:06:39.146Z,14.70
2018-05-03T06:07:37.238Z,14.40
2018-05-03T06:09:32.129Z,13.50
2018-05-03T06:10:31.937Z,14.80
2018-05-03T06:11:31.780Z,14.60
2018-05-03T06:12:31.988Z,14.60
2018-05-03T06:13:31.895Z,14.50
2018-05-03T06:14:30.177Z,14.10
2018-05-03T06:15:31.906Z,15.10
2018-05-03T06:16:32.108Z,14.50
2018-05-03T06:17:31.985Z,14.30
2018-05-03T06:18:31.902Z,14.90
2018-05-03T06:19:30.163Z,14.60
2018-05-03T06:20:29.799Z,14.90
2018-05-03T06:21:31.046Z,14.80
2018-05-03T06:22:29.868Z,14.80
2018-05-03T06:23:31.701Z,15.00
2018-05-03T06:24:31.522Z,14.80
2018-05-03T06:25:31.566Z,14.50
2018-05-03T06:26:31.554Z,15.20
2018-05-03T06:27:29.487Z,15.30
2018-05-03T06:28:29.339Z,15.50
2018-05-03T06:29:29.299Z,14.50
2018-05-03T06:30:29.216Z,15.60
2018-05-03T06:31:29.156Z,15.60
2018-05-03T06:32:29.135Z,15.30
2018-05-03T06:33:29.088Z,15.10
2018-05-03T06:34:29.160Z,15.60
2018-05-03T06:35:29.016Z,16.00
2018-05-03T06:36:29.021Z,15.90
2018-05-03T06:37:28.962Z,15.40
2018-05-03T06:38:29.778Z,15.10
2018-05-03T06:39:28.888Z,15.50
2018-05-03T06:40:28.857Z,16.10
2018-05-03T06:41:28.901Z,16.20
2018-05-03T06:42:28.793Z,15.90
2018-05-03T06:43:28.856Z,16.20
2018-05-03T06:44:28.739Z,15.80
2018-05-03T06:45:28.710Z,16.90
2018-05-03T06:46:28.640Z,14.70
2018-05-03T06:47:28.648Z,15.40
2018-05-03T06:48:28.575Z,15.30
2018-05-03T06:49:28.631Z,15.10
2018-05-03T06:50:28.513Z,14.60
2018-05-03T06:51:28.531Z,14.40
2018-05-03T06:52:28.473Z,14.10
2018-05-03T06:53:28.411Z,14.40
2018-05-03T06:54:28.391Z,14.20
2018-05-03T06:55:28.499Z,13.40
2018-05-03T06:56:28.340Z,13.20
2018-05-03T06:57:28.366Z,13.70
2018-05-03T06:58:28.309Z,12.10
2018-05-03T06:59:28.257Z,12.00
2018-05-03T07:00:28.238Z,12.20
2018-05-03T07:01:28.194Z,11.50
2018-05-03T07:02:28.145Z,11.60
2018-05-03T07:03:28.147Z,11.90
2018-05-03T07:04:28.179Z,11.30
2018-05-03T07:05:28.062Z,11.40
2018-05-03T07:06:28.038Z,11.70
2018-05-03T07:07:27.988Z,10.70
2018-05-03T07:08:28.005Z,10.60
2018-05-03T07:09:27.950Z,10.80
2018-05-03T07:10:27.906Z,10.00
2018-05-03T07:11:27.945Z,10.20
2018-05-03T07:12:27.879Z,9.60
2018-05-03T07:13:27.834Z,9.30
2018-05-03T07:14:27.798Z,8.80
2018-05-03T07:15:27.888Z,8.60
2018-05-03T07:16:27.727Z,8.90
2018-05-03T07:17:27.736Z,8.60
2018-05-03T07:18:27.701Z,9.10
2018-05-03T07:19:27.678Z,8.70
2018-05-03T07:20:27.618Z,8.90
2018-05-03T07:21:27.672Z,8.70
2018-05-03T07:22:27.610Z,8.40
2018-05-03T07:23:27.548Z,9.00
2018-05-03T07:24:27.535Z,8.70
2018-05-03T07:25:27.633Z,8.90
2018-05-03T07:26:27.492Z,8.60
2018-05-03T07:27:27.444Z,8.20
2018-05-03T07:28:27.441Z,8.20
2018-05-03T07:29:27.468Z,8.10
2018-05-03T07:30:27.408Z,7.90
2018-05-03T07:31:27.394Z,7.80
2018-05-03T07:32:27.319Z,7.80
2018-05-03T07:33:27.346Z,7.30
2018-05-03T07:34:27.278Z,7.90
2018-05-03T07:35:27.243Z,7.60
2018-05-03T07:36:27.250Z,8.00
2018-05-03T07:37:27.206Z,7.70
2018-05-03T07:38:27.166Z,7.40
2018-05-03T07:39:27.169Z,7.00
2018-05-03T07:40:27.195Z,7.10
2018-05-03T07:41:27.131Z,7.30
2018-05-03T07:42:27.103Z,7.40
2018-05-03T07:43:27.088Z,6.40
2018-05-03T07:44:27.030Z,6.20
2018-05-03T07:45:26.998Z,6.80
2018-05-03T07:46:26.975Z,6.60
2018-05-03T07:47:26.966Z,6.50
2018-05-03T07:48:26.948Z,7.40
2018-05-03T07:49:26.943Z,6.80
2018-05-03T07:50:26.900Z,6.40
2018-05-03T07:51:26.887Z,7.00
2018-05-03T07:52:26.843Z,7.00
2018-05-03T07:53:26.826Z,7.40
2018-05-03T07:54:26.807Z,7.20
2018-05-03T07:55:26.777Z,7.50
2018-05-03T07:56:26.744Z,6.80
2018-05-03T07:57:26.773Z,7.00
2018-05-03T07:58:26.716Z,6.70
2018-05-03T07:59:26.699Z,7.10
2018-05-03T08:00:26.667Z,6.70
2018-05-03T08:01:26.631Z,6.30
2018-05-03T08:02:26.607Z,6.90
2018-05-03T08:03:26.560Z,6.90
2018-05-03T08:04:27.289Z,6.80
2018-05-03T08:05:26.526Z,6.60
2018-05-03T08:06:26.498Z,6.80
2018-05-03T08:07:26.481Z,6.60
2018-05-03T08:08:26.440Z,7.30
2018-05-03T08:09:26.422Z,6.80
2018-05-03T08:10:26.379Z,6.80
2018-05-03T08:11:26.386Z,6.70
2018-05-03T08:12:26.383Z,7.20
2018-05-03T08:13:26.337Z,6.50
2018-05-03T08:14:26.282Z,6.70
2018-05-03T08:15:26.282Z,6.30
2018-05-03T08:16:26.280Z,6.70
2018-05-03T08:17:26.208Z,6.70
2018-05-03T08:18:26.255Z,7.40
2018-05-03T08:19:26.152Z,7.10
2018-05-03T08:20:26.106Z,7.00
2018-05-03T08:21:26.133Z,6.80
2018-05-03T08:22:26.118Z,7.50
2018-05-03T08:23:26.029Z,7.50
2018-05-03T08:24:26.036Z,7.30
2018-05-03T08:25:26.022Z,7.00
2018-05-03T08:26:25.960Z,7.10
2018-05-03T08:27:25.943Z,7.10
2018-05-03T08:28:25.961Z,7.30
2018-05-03T08:29:25.867Z,6.90
2018-05-03T08:30:25.853Z,6.90
2018-05-03T08:31:26.303Z,6.50
2018-05-03T08:32:25.777Z,6.80
2018-05-03T08:33:25.746Z,7.40
2018-05-03T08:34:25.754Z,7.40
2018-05-03T08:35:26.296Z,7.10
2018-05-03T08:36:25.705Z,7.40
2018-05-03T08:37:25.648Z,7.40
2018-05-03T08:38:25.607Z,7.40
2018-05-03T08:39:25.550Z,7.70
2018-05-03T08:40:25.581Z,7.20
2018-05-03T08:41:25.540Z,7.00
2018-05-03T08:42:25.482Z,7.30
2018-05-03T08:43:25.476Z,7.10
2018-05-03T08:44:25.422Z,6.90
2018-05-03T08:45:25.390Z,7.00
2018-05-03T08:46:25.380Z,7.80
2018-05-03T08:47:25.354Z,8.20
2018-05-03T08:48:25.336Z,7.50
2018-05-03T08:49:25.338Z,8.00
2018-05-03T08:50:25.264Z,7.90
2018-05-03T08:51:25.241Z,7.70
2018-05-03T08:52:25.204Z,7.90
2018-05-03T08:53:25.166Z,7.90
2018-05-03T08:54:25.125Z,7.40
2018-05-03T08:55:25.099Z,7.10
2018-05-03T08:56:25.069Z,7.60
2018-05-03T08:57:25.054Z,7.20
2018-05-03T08:58:25.009Z,7.70
2018-05-03T08:59:24.991Z,7.40
2018-05-03T09:00:24.974Z,7.50
2018-05-03T09:01:24.923Z,7.50
2018-05-03T09:02:24.909Z,8.30
2018-05-03T09:03:24.877Z,7.70
2018-05-03T09:04:24.827Z,7.70
2018-05-03T09:05:24.815Z,7.80
2018-05-03T09:06:24.754Z,8.40
2018-05-03T09:07:24.738Z,8.60
2018-05-03T09:08:24.718Z,7.90
2018-05-03T09:09:24.689Z,8.50
2018-05-03T09:10:24.660Z,8.60
2018-05-03T09:11:24.644Z,7.80
2018-05-03T09:12:24.598Z,8.10
2018-05-03T09:13:24.554Z,8.00
2018-05-03T09:14:24.560Z,8.40
2018-05-03T09:15:24.523Z,8.30
2018-05-03T09:16:24.477Z,8.50
2018-05-03T09:17:24.453Z,8.20
2018-05-03T09:18:24.410Z,8.00
2018-05-03T09:19:24.412Z,8.00
2018-05-03T09:20:24.373Z,8.20
2018-05-03T09:21:24.336Z,8.80
2018-05-03T09:22:24.347Z,8.30
2018-05-03T09:23:25.942Z,11.20
2018-05-03T09:24:24.262Z,12.50
2018-05-03T09:25:24.250Z,8.90
2018-05-03T09:26:24.232Z,8.50
2018-05-03T09:27:24.142Z,10.10
2018-05-03T09:28:24.119Z,9.20
2018-05-03T09:29:24.118Z,8.40
2018-05-03T09:30:24.104Z,8.00
2018-05-03T09:31:24.059Z,7.50
2018-05-03T09:32:24.045Z,7.40
2018-05-03T09:33:23.981Z,8.00
2018-05-03T09:34:23.958Z,8.30
2018-05-03T09:35:23.945Z,8.10
2018-05-03T09:36:23.893Z,7.90
2018-05-03T09:37:23.869Z,8.00
2018-05-03T09:38:23.819Z,7.60
2018-05-03T09:39:23.801Z,7.80
2018-05-03T09:40:23.880Z,7.90
2018-05-03T09:41:23.743Z,8.00
2018-05-03T09:42:23.716Z,8.20
2018-05-03T09:43:23.674Z,8.30
2018-05-03T09:44:23.693Z,7.80
2018-05-03T09:45:23.665Z,7.60
2018-05-03T09:46:23.630Z,7.60
2018-05-03T09:47:23.571Z,7.80
2018-05-03T09:48:23.541Z,6.90
2018-05-03T09:49:23.503Z,7.60
2018-05-03T09:50:23.476Z,7.70
2018-05-03T09:51:23.493Z,7.70
2018-05-03T09:52:23.448Z,7.80
2018-05-03T09:53:23.456Z,7.40
2018-05-03T09:54:23.414Z,7.40
2018-05-03T09:55:23.330Z,7.50
2018-05-03T09:56:23.396Z,7.70
2018-05-03T09:57:23.279Z,7.00
2018-05-03T09:58:23.297Z,6.80
2018-05-03T09:59:23.316Z,6.60
2018-05-03T10:00:23.202Z,6.90
2018-05-03T10:01:23.169Z,7.10
2018-05-03T10:02:23.172Z,6.90
2018-05-03T10:03:23.131Z,6.80
2018-05-03T10:04:23.109Z,6.90
2018-05-03T10:05:23.075Z,7.10
2018-05-03T10:06:23.064Z,7.10
2018-05-03T10:07:23.010Z,7.30
2018-05-03T10:08:23.026Z,7.20
2018-05-03T10:09:22.983Z,7.30
2018-05-03T10:10:22.960Z,7.00
2018-05-03T10:11:22.910Z,6.70
2018-05-03T10:12:22.893Z,7.10
2018-05-03T10:13:23.012Z,6.50
2018-05-03T10:14:22.854Z,6.90
2018-05-03T10:15:22.806Z,6.70
2018-05-03T10:16:22.771Z,6.30
2018-05-03T10:17:22.796Z,7.40
2018-05-03T10:18:22.723Z,6.50
2018-05-03T10:19:22.690Z,6.90
2018-05-03T10:20:22.706Z,6.90
2018-05-03T10:21:22.782Z,7.80
2018-05-03T10:22:22.643Z,6.90
2018-05-03T10:23:22.671Z,7.80
2018-05-03T10:24:22.581Z,8.10
2018-05-03T10:25:22.565Z,7.60
2018-05-03T10:26:22.561Z,7.40
2018-05-03T10:27:22.492Z,6.70
2018-05-03T10:28:22.541Z,7.20
2018-05-03T10:29:22.450Z,7.20
2018-05-03T10:30:22.400Z,7.30
2018-05-03T10:31:22.381Z,7.50
2018-05-03T10:32:22.392Z,6.90
2018-05-03T10:33:22.395Z,6.60
2018-05-03T10:34:22.322Z,7.80
2018-05-03T10:35:22.281Z,7.50
2018-05-03T10:36:22.400Z,7.70
2018-05-03T10:37:22.260Z,7.70
2018-05-03T10:38:22.848Z,7.20
2018-05-03T10:39:22.225Z,7.50
2018-05-03T10:40:22.159Z,7.10
2018-05-03T10:41:22.128Z,7.10
2018-05-03T10:42:22.115Z,7.50
2018-05-03T10:43:22.072Z,6.60
2018-05-03T10:44:22.071Z,6.80
2018-05-03T10:45:22.066Z,7.60
2018-05-03T10:46:22.007Z,7.30
2018-05-03T10:47:22.021Z,7.30
2018-05-03T10:48:21.977Z,7.20
2018-05-03T10:49:21.970Z,7.40
2018-05-03T10:50:21.920Z,7.40
2018-05-03T10:51:21.912Z,7.70
2018-05-03T10:52:21.892Z,7.50
2018-05-03T10:53:21.815Z,7.60
2018-05-03T10:54:21.891Z,6.90
2018-05-03T10:55:21.775Z,7.00
2018-05-03T10:56:21.741Z,7.30
2018-05-03T10:57:21.762Z,7.70
2018-05-03T10:58:21.791Z,6.70
2018-05-03T10:59:21.644Z,6.70
2018-05-03T11:00:21.633Z,7.10
2018-05-03T11:01:21.628Z,7.60
2018-05-03T11:02:21.760Z,7.40
2018-05-03T11:03:21.558Z,7.40
2018-05-03T11:04:21.547Z,7.50
2018-05-03T11:05:21.542Z,7.50
2018-05-03T11:06:21.573Z,7.40
2018-05-03T11:07:21.487Z,7.00
2018-05-03T11:08:21.436Z,6.90
2018-05-03T11:09:21.472Z,7.30
2018-05-03T11:10:21.389Z,7.40
2018-05-03T11:11:21.354Z,7.00
2018-05-03T11:12:21.487Z,7.30
2018-05-03T11:13:21.328Z,7.40
2018-05-03T11:14:21.277Z,7.40
2018-05-03T11:15:21.260Z,7.30
2018-05-03T11:16:21.258Z,7.60
2018-05-03T11:17:21.208Z,7.50
2018-05-03T11:18:21.165Z,7.90
2018-05-03T11:19:21.171Z,8.00
2018-05-03T11:20:21.183Z,7.50
2018-05-03T11:21:21.142Z,6.90
2018-05-03T11:22:21.098Z,7.10
2018-05-03T11:23:21.109Z,7.30
2018-05-03T11:24:21.081Z,8.00
2018-05-03T11:25:21.004Z,7.90
2018-05-03T11:26:21.129Z,7.90
2018-05-03T11:27:20.950Z,8.10
2018-05-03T11:28:21.871Z,8.40
2018-05-03T11:29:20.977Z,8.30
2018-05-03T11:30:21.020Z,7.90
2018-05-03T11:31:20.910Z,7.60
2018-05-03T11:32:20.822Z,8.00
2018-05-03T11:33:20.833Z,8.30
2018-05-03T11:34:20.769Z,7.80
2018-05-03T11:35:20.770Z,7.40
2018-05-03T11:36:20.711Z,7.50
2018-05-03T11:37:20.741Z,7.10
2018-05-03T11:38:20.818Z,8.20
2018-05-03T11:39:20.728Z,7.90
2018-05-03T11:40:20.707Z,8.20
2018-05-03T11:41:20.611Z,7.90
2018-05-03T11:42:20.690Z,8.10
2018-05-03T11:43:20.829Z,8.10
2018-05-03T11:44:20.840Z,7.60
2018-05-03T11:45:20.585Z,7.50
2018-05-03T11:46:20.519Z,7.50
2018-05-03T11:47:20.536Z,7.10
2018-05-03T11:48:20.417Z,7.50
2018-05-03T11:49:20.501Z,7.60
2018-05-03T11:50:20.359Z,8.70
2018-05-03T11:51:20.379Z,8.00
2018-05-03T11:52:20.302Z,7.40
2018-05-03T11:53:20.302Z,7.60
2018-05-03T11:54:20.300Z,7.60
2018-05-03T11:55:20.242Z,7.70
2018-05-03T11:56:20.347Z,7.40
2018-05-03T11:57:20.203Z,7.20
2018-05-03T11:58:20.155Z,7.90
2018-05-03T12:00:16.365Z,7.70
2018-05-03T12:01:15.665Z,7.50
2018-05-03T12:03:10.722Z,8.60
2018-05-03T12:04:10.377Z,8.90
2018-05-03T12:06:05.138Z,7.90
2018-05-03T12:07:03.018Z,8.10
2018-05-03T12:08:59.055Z,7.90
2018-05-03T12:09:58.923Z,7.80
2018-05-03T12:11:56.447Z,8.40
2018-05-03T12:12:57.634Z,8.40
2018-05-03T12:13:56.171Z,8.50
2018-05-03T12:14:56.299Z,8.30
2018-05-03T12:15:54.378Z,8.00
2018-05-03T12:16:56.303Z,8.30
2018-05-03T12:17:56.292Z,8.70
2018-05-03T12:18:54.155Z,8.50
2018-05-03T12:19:56.171Z,8.70
2018-05-03T12:20:56.188Z,8.30
2018-05-03T12:21:55.828Z,9.40
2018-05-03T12:22:56.159Z,8.00
2018-05-03T12:23:56.093Z,7.90
2018-05-03T12:24:56.251Z,8.00
2018-05-03T12:25:55.343Z,7.90
2018-05-03T12:26:54.068Z,8.80
2018-05-03T12:27:54.809Z,8.30
2018-05-03T12:28:56.107Z,8.90
2018-05-03T12:29:54.147Z,9.00
2018-05-03T12:30:53.693Z,8.40
2018-05-03T12:31:53.858Z,8.30
2018-05-03T12:32:53.655Z,8.60
2018-05-03T12:33:53.694Z,8.30
2018-05-03T12:34:53.665Z,8.40
2018-05-03T12:35:53.660Z,7.70
2018-05-03T12:36:53.568Z,8.00
2018-05-03T12:37:53.507Z,8.00
2018-05-03T12:38:53.507Z,8.70
2018-05-03T12:39:53.475Z,8.60
2018-05-03T12:40:53.479Z,8.70
2018-05-03T12:41:53.471Z,8.40
2018-05-03T12:42:53.385Z,8.00
2018-05-03T12:43:53.457Z,8.60
2018-05-03T12:44:53.689Z,8.60
2018-05-03T12:45:53.322Z,8.80
2018-05-03T12:46:53.397Z,8.70
2018-05-03T12:47:53.738Z,9.10
2018-05-03T12:48:53.226Z,8.30
2018-05-03T12:49:53.313Z,8.40
2018-05-03T12:50:54.175Z,8.40
2018-05-03T12:51:54.667Z,9.20
2018-05-03T12:52:53.208Z,8.10
2018-05-03T12:53:53.094Z,7.70
2018-05-03T12:54:53.065Z,7.50
2018-05-03T12:55:53.122Z,7.70
2018-05-03T12:56:53.101Z,7.50
2018-05-03T12:57:52.998Z,7.00
2018-05-03T12:58:52.968Z,7.70
2018-05-03T12:59:52.936Z,7.50
2018-05-03T13:00:53.014Z,7.00
2018-05-03T13:01:52.983Z,7.00
2018-05-03T13:02:52.880Z,6.90
2018-05-03T13:03:52.864Z,6.60
2018-05-03T13:04:52.876Z,6.50
2018-05-03T13:05:52.825Z,6.90
2018-05-03T13:06:52.767Z,7.10
2018-05-03T13:07:52.737Z,6.80
2018-05-03T13:08:52.721Z,7.40
2018-05-03T13:09:52.829Z,7.50
2018-05-03T13:10:52.681Z,7.00
2018-05-03T13:11:52.635Z,7.20
2018-05-03T13:12:52.642Z,6.60
2018-05-03T13:13:52.585Z,6.90
2018-05-03T13:14:52.587Z,7.30
2018-05-03T13:15:52.554Z,7.10
2018-05-03T13:16:52.692Z,7.30
2018-05-03T13:17:52.894Z,7.20
2018-05-03T13:18:52.534Z,6.90
2018-05-03T13:19:52.546Z,7.70
2018-05-03T13:20:52.459Z,6.90
2018-05-03T13:21:52.404Z,7.10
2018-05-03T13:22:52.377Z,6.80
2018-05-03T13:23:52.555Z,7.70
2018-05-03T13:24:52.454Z,7.30
2018-05-03T13:25:52.295Z,7.30
2018-05-03T13:26:52.294Z,7.40
2018-05-03T13:27:52.299Z,7.50
2018-05-03T13:28:52.216Z,7.30
2018-05-03T13:29:52.222Z,6.70
2018-05-03T13:30:52.163Z,7.20
2018-05-03T13:31:52.142Z,7.40
2018-05-03T13:32:52.183Z,8.00
2018-05-03T13:33:52.102Z,8.10
2018-05-03T13:34:52.062Z,7.80
2018-05-03T13:35:52.083Z,7.60
2018-05-03T13:36:52.103Z,7.00
2018-05-03T13:37:51.989Z,7.10
2018-05-03T13:38:51.980Z,7.40
2018-05-03T13:39:51.931Z,7.50
2018-05-03T13:40:51.931Z,7.10
2018-05-03T13:41:51.919Z,7.10
2018-05-03T13:42:51.889Z,7.90
2018-05-03T13:43:51.859Z,6.90
2018-05-03T13:44:51.813Z,6.90
2018-05-03T13:45:51.792Z,6.90
2018-05-03T13:46:51.932Z,6.80
2018-05-03T13:47:51.740Z,6.50
2018-05-03T13:48:51.703Z,6.80
2018-05-03T13:49:51.660Z,6.40
2018-05-03T13:50:51.639Z,7.10
2018-05-03T13:51:51.624Z,6.90
2018-05-03T13:52:51.587Z,7.60
2018-05-03T13:53:51.567Z,6.90
2018-05-03T13:54:51.582Z,7.20
2018-05-03T13:55:51.516Z,7.20
2018-05-03T13:56:51.566Z,7.60
2018-05-03T13:57:51.496Z,7.70
2018-05-03T13:58:51.487Z,6.70
2018-05-03T13:59:51.411Z,7.10
2018-05-03T14:00:51.512Z,7.30
2018-05-03T14:01:51.408Z,7.30
2018-05-03T14:02:51.345Z,7.30
2018-05-03T14:03:51.371Z,7.00
2018-05-03T14:04:51.322Z,6.70
2018-05-03T14:05:51.305Z,6.30
2018-05-03T14:06:51.315Z,7.60
2018-05-03T14:07:51.297Z,7.00
2018-05-03T14:08:51.167Z,6.90
2018-05-03T14:09:51.163Z,7.20
2018-05-03T14:10:51.171Z,7.10
2018-05-03T14:11:51.207Z,7.90
2018-05-03T14:12:51.083Z,7.60
2018-05-03T14:13:51.093Z,8.10
2018-05-03T14:14:51.202Z,8.00
2018-05-03T14:15:51.010Z,7.20
2018-05-03T14:16:51.056Z,7.00
2018-05-03T14:17:50.960Z,6.90
2018-05-03T14:18:50.952Z,6.80
2018-05-03T14:19:50.988Z,7.50
2018-05-03T14:20:50.930Z,7.70
2018-05-03T14:21:50.884Z,7.50
2018-05-03T14:22:50.855Z,7.10
2018-05-03T14:23:50.916Z,7.40
2018-05-03T14:24:50.792Z,7.40
2018-05-03T14:25:50.754Z,7.80